sensor_id;sensor_type;location;lat;lon;timestamp;P1;durP1;ratioP1;P2;durP2;ratioP2
52041;SDS011;38052;45.944;13.624;2023-09-19T00:00:23;21.58;;;9.75;;
52041;SDS011;38052;45.944;13.624;2023-09-19T00:02:56;22.77;;;10.90;;
52041;SDS011;38052;45.944;13.624;2023-09-19T00:05:25;19.42;;;9.95;;
52041;SDS011;38052;45.944;13.624;2023-09-19T00:07:53;24.80;;;9.18;;
52041;SDS011;38052;45.944;13.624;2023-09-19T00:10:22;21.15;;;10.20;;
52041;SDS011;38052;45.944;13.624;2023-09-19T00:12:50;22.38;;;9.20;;
52041;SDS011;38052;45.944;13.624;2023-09-19T00:15:17;16.25;;;9.35;;
52041;SDS011;38052;45.944;13.624;2023-09-19T00:17:44;22.30;;;9.55;;
52041;SDS011;38052;45.944;13.624;2023-09-19T00:20:11;28.70;;;10.52;;
52041;SDS011;38052;45.944;13.624;2023-09-19T00:22:41;23.05;;;9.88;;
52041;SDS011;38052;45.944;13.624;2023-09-19T00:25:08;27.95;;;10.63;;
52041;SDS011;38052;45.944;13.624;2023-09-19T00:27:40;22.80;;;10.30;;
52041;SDS011;38052;45.944;13.624;2023-09-19T00:30:07;18.20;;;7.93;;
52041;SDS011;38052;45.944;13.624;2023-09-19T00:32:39;19.73;;;9.80;;
52041;SDS011;38052;45.944;13.624;2023-09-19T00:35:05;22.60;;;10.40;;
52041;SDS011;38052;45.944;13.624;2023-09-19T00:37:34;18.92;;;9.85;;
52041;SDS011;38052;45.944;13.624;2023-09-19T00:40:01;24.25;;;9.77;;
52041;SDS011;38052;45.944;13.624;2023-09-19T00:42:27;22.10;;;10.25;;
52041;SDS011;38052;45.944;13.624;2023-09-19T00:44:54;21.05;;;10.15;;
52041;SDS011;38052;45.944;13.624;2023-09-19T00:47:20;17.88;;;11.13;;
52041;SDS011;38052;45.944;13.624;2023-09-19T00:49:47;19.20;;;9.98;;
52041;SDS011;38052;45.944;13.624;2023-09-19T00:52:17;23.30;;;10.85;;
52041;SDS011;38052;45.944;13.624;2023-09-19T00:54:49;30.83;;;11.35;;
52041;SDS011;38052;45.944;13.624;2023-09-19T00:57:15;24.25;;;10.48;;
52041;SDS011;38052;45.944;13.624;2023-09-19T00:59:44;28.33;;;11.25;;
52041;SDS011;38052;45.944;13.624;2023-09-19T01:02:11;20.45;;;9.77;;
52041;SDS011;38052;45.944;13.624;2023-09-19T01:04:39;20.17;;;11.15;;
52041;SDS011;38052;45.944;13.624;2023-09-19T01:07:06;23.83;;;10.77;;
52041;SDS011;38052;45.944;13.624;2023-09-19T01:09:33;20.73;;;10.18;;
52041;SDS011;38052;45.944;13.624;2023-09-19T01:12:01;28.10;;;11.18;;
52041;SDS011;38052;45.944;13.624;2023-09-19T01:14:34;24.92;;;11.25;;
52041;SDS011;38052;45.944;13.624;2023-09-19T01:17:05;35.20;;;11.20;;
52041;SDS011;38052;45.944;13.624;2023-09-19T01:29:46;22.50;;;10.10;;
52041;SDS011;38052;45.944;13.624;2023-09-19T01:32:13;24.77;;;10.38;;
52041;SDS011;38052;45.944;13.624;2023-09-19T01:37:12;32.22;;;10.23;;
52041;SDS011;38052;45.944;13.624;2023-09-19T01:39:39;21.88;;;9.30;;
52041;SDS011;38052;45.944;13.624;2023-09-19T01:42:08;21.58;;;9.70;;
52041;SDS011;38052;45.944;13.624;2023-09-19T01:47:09;24.30;;;10.00;;
52041;SDS011;38052;45.944;13.624;2023-09-19T01:52:11;23.23;;;10.27;;
52041;SDS011;38052;45.944;13.624;2023-09-19T01:59:53;20.23;;;9.20;;
52041;SDS011;38052;45.944;13.624;2023-09-19T02:02:21;28.15;;;9.95;;
52041;SDS011;38052;45.944;13.624;2023-09-19T02:04:48;20.60;;;9.93;;
52041;SDS011;38052;45.944;13.624;2023-09-19T02:07:15;22.08;;;9.45;;
52041;SDS011;38052;45.944;13.624;2023-09-19T02:09:42;29.73;;;11.55;;
52041;SDS011;38052;45.944;13.624;2023-09-19T02:12:09;17.50;;;8.35;;
52041;SDS011;38052;45.944;13.624;2023-09-19T02:14:35;25.35;;;9.82;;
52041;SDS011;38052;45.944;13.624;2023-09-19T02:17:02;34.90;;;9.77;;
52041;SDS011;38052;45.944;13.624;2023-09-19T02:19:32;28.00;;;10.37;;
52041;SDS011;38052;45.944;13.624;2023-09-19T02:21:59;33.33;;;9.75;;
52041;SDS011;38052;45.944;13.624;2023-09-19T02:24:25;33.45;;;10.00;;
52041;SDS011;38052;45.944;13.624;2023-09-19T02:26:52;30.10;;;10.45;;
52041;SDS011;38052;45.944;13.624;2023-09-19T02:29:19;23.65;;;10.05;;
52041;SDS011;38052;45.944;13.624;2023-09-19T02:31:47;25.80;;;10.23;;
52041;SDS011;38052;45.944;13.624;2023-09-19T02:34:13;29.27;;;10.27;;
52041;SDS011;38052;45.944;13.624;2023-09-19T02:36:41;34.47;;;10.73;;
52041;SDS011;38052;45.944;13.624;2023-09-19T02:39:09;24.73;;;9.25;;
52041;SDS011;38052;45.944;13.624;2023-09-19T02:41:36;31.95;;;9.95;;
52041;SDS011;38052;45.944;13.624;2023-09-19T02:44:02;22.75;;;9.15;;
52041;SDS011;38052;45.944;13.624;2023-09-19T02:46:33;35.17;;;9.63;;
52041;SDS011;38052;45.944;13.624;2023-09-19T02:48:59;29.10;;;9.85;;
52041;SDS011;38052;45.944;13.624;2023-09-19T02:51:26;31.08;;;9.60;;
52041;SDS011;38052;45.944;13.624;2023-09-19T02:53:52;36.58;;;9.60;;
52041;SDS011;38052;45.944;13.624;2023-09-19T02:56:19;32.03;;;10.23;;
52041;SDS011;38052;45.944;13.624;2023-09-19T02:58:46;33.88;;;9.80;;
52041;SDS011;38052;45.944;13.624;2023-09-19T03:01:13;36.60;;;10.10;;
52041;SDS011;38052;45.944;13.624;2023-09-19T03:03:39;24.58;;;9.82;;
52041;SDS011;38052;45.944;13.624;2023-09-19T03:06:06;31.95;;;10.35;;
52041;SDS011;38052;45.944;13.624;2023-09-19T03:08:34;33.13;;;10.05;;
52041;SDS011;38052;45.944;13.624;2023-09-19T03:11:00;31.67;;;10.05;;
52041;SDS011;38052;45.944;13.624;2023-09-19T03:13:27;31.00;;;9.35;;
52041;SDS011;38052;45.944;13.624;2023-09-19T03:15:56;36.03;;;9.30;;
52041;SDS011;38052;45.944;13.624;2023-09-19T03:18:23;27.67;;;11.15;;
52041;SDS011;38052;45.944;13.624;2023-09-19T03:20:54;32.38;;;9.32;;
52041;SDS011;38052;45.944;13.624;2023-09-19T03:23:21;23.85;;;9.45;;
52041;SDS011;38052;45.944;13.624;2023-09-19T03:25:48;25.02;;;10.00;;
52041;SDS011;38052;45.944;13.624;2023-09-19T03:28:14;21.13;;;9.20;;
52041;SDS011;38052;45.944;13.624;2023-09-19T03:30:41;18.45;;;8.65;;
52041;SDS011;38052;45.944;13.624;2023-09-19T03:33:07;22.83;;;9.77;;
52041;SDS011;38052;45.944;13.624;2023-09-19T03:35:33;30.75;;;10.48;;
52041;SDS011;38052;45.944;13.624;2023-09-19T03:38:01;29.15;;;9.82;;
52041;SDS011;38052;45.944;13.624;2023-09-19T03:40:28;28.02;;;10.57;;
52041;SDS011;38052;45.944;13.624;2023-09-19T03:42:55;17.65;;;9.25;;
52041;SDS011;38052;45.944;13.624;2023-09-19T03:45:21;24.02;;;10.02;;
52041;SDS011;38052;45.944;13.624;2023-09-19T03:47:48;24.50;;;10.30;;
52041;SDS011;38052;45.944;13.624;2023-09-19T03:50:14;35.85;;;9.32;;
52041;SDS011;38052;45.944;13.624;2023-09-19T03:52:42;30.55;;;10.25;;
52041;SDS011;38052;45.944;13.624;2023-09-19T03:55:09;20.35;;;9.18;;
52041;SDS011;38052;45.944;13.624;2023-09-19T03:57:36;26.08;;;9.68;;
52041;SDS011;38052;45.944;13.624;2023-09-19T04:00:03;24.02;;;9.95;;
52041;SDS011;38052;45.944;13.624;2023-09-19T04:02:37;25.55;;;10.00;;
52041;SDS011;38052;45.944;13.624;2023-09-19T04:05:04;21.02;;;8.80;;
52041;SDS011;38052;45.944;13.624;2023-09-19T04:07:31;28.50;;;9.70;;
52041;SDS011;38052;45.944;13.624;2023-09-19T04:09:57;23.98;;;10.18;;
52041;SDS011;38052;45.944;13.624;2023-09-19T04:12:24;20.42;;;9.48;;
52041;SDS011;38052;45.944;13.624;2023-09-19T04:14:50;24.58;;;8.77;;
52041;SDS011;38052;45.944;13.624;2023-09-19T04:17:17;28.63;;;10.25;;
52041;SDS011;38052;45.944;13.624;2023-09-19T04:19:43;19.85;;;9.23;;
52041;SDS011;38052;45.944;13.624;2023-09-19T04:22:10;22.55;;;8.60;;
52041;SDS011;38052;45.944;13.624;2023-09-19T04:24:37;26.77;;;9.07;;
52041;SDS011;38052;45.944;13.624;2023-09-19T04:27:04;26.02;;;9.55;;
52041;SDS011;38052;45.944;13.624;2023-09-19T04:29:32;31.75;;;9.52;;
52041;SDS011;38052;45.944;13.624;2023-09-19T04:31:58;22.73;;;9.23;;
52041;SDS011;38052;45.944;13.624;2023-09-19T04:34:25;34.40;;;10.48;;
52041;SDS011;38052;45.944;13.624;2023-09-19T04:36:51;39.05;;;10.75;;
52041;SDS011;38052;45.944;13.624;2023-09-19T04:39:18;26.60;;;10.20;;
52041;SDS011;38052;45.944;13.624;2023-09-19T04:41:46;30.85;;;11.02;;
52041;SDS011;38052;45.944;13.624;2023-09-19T04:44:13;28.38;;;11.27;;
52041;SDS011;38052;45.944;13.624;2023-09-19T04:46:39;31.35;;;11.80;;
52041;SDS011;38052;45.944;13.624;2023-09-19T04:49:06;21.52;;;10.18;;
52041;SDS011;38052;45.944;13.624;2023-09-19T04:51:32;27.17;;;9.55;;
52041;SDS011;38052;45.944;13.624;2023-09-19T04:54:01;27.88;;;9.80;;
52041;SDS011;38052;45.944;13.624;2023-09-19T04:56:27;26.20;;;10.35;;
52041;SDS011;38052;45.944;13.624;2023-09-19T04:58:54;29.88;;;10.57;;
52041;SDS011;38052;45.944;13.624;2023-09-19T05:01:21;29.48;;;10.50;;
52041;SDS011;38052;45.944;13.624;2023-09-19T05:03:47;20.23;;;10.10;;
52041;SDS011;38052;45.944;13.624;2023-09-19T05:06:17;31.33;;;10.65;;
52041;SDS011;38052;45.944;13.624;2023-09-19T05:08:43;32.90;;;10.75;;
52041;SDS011;38052;45.944;13.624;2023-09-19T05:11:09;24.90;;;10.02;;
52041;SDS011;38052;45.944;13.624;2023-09-19T05:13:36;20.75;;;9.05;;
52041;SDS011;38052;45.944;13.624;2023-09-19T05:16:02;19.33;;;9.73;;
52041;SDS011;38052;45.944;13.624;2023-09-19T05:18:29;23.58;;;9.45;;
52041;SDS011;38052;45.944;13.624;2023-09-19T05:20:56;26.90;;;9.43;;
52041;SDS011;38052;45.944;13.624;2023-09-19T05:23:23;29.50;;;9.60;;
52041;SDS011;38052;45.944;13.624;2023-09-19T05:25:50;26.17;;;10.05;;
52041;SDS011;38052;45.944;13.624;2023-09-19T05:28:16;25.23;;;10.30;;
52041;SDS011;38052;45.944;13.624;2023-09-19T05:30:43;25.75;;;9.80;;
52041;SDS011;38052;45.944;13.624;2023-09-19T05:33:10;23.67;;;9.38;;
52041;SDS011;38052;45.944;13.624;2023-09-19T05:35:37;25.20;;;10.52;;
52041;SDS011;38052;45.944;13.624;2023-09-19T05:38:04;28.13;;;9.40;;
52041;SDS011;38052;45.944;13.624;2023-09-19T05:40:33;26.92;;;10.65;;
52041;SDS011;38052;45.944;13.624;2023-09-19T05:43:00;22.83;;;9.98;;
52041;SDS011;38052;45.944;13.624;2023-09-19T05:45:27;29.08;;;11.23;;
52041;SDS011;38052;45.944;13.624;2023-09-19T05:47:53;26.92;;;10.65;;
52041;SDS011;38052;45.944;13.624;2023-09-19T05:50:29;30.83;;;9.48;;
52041;SDS011;38052;45.944;13.624;2023-09-19T05:52:57;26.13;;;9.60;;
52041;SDS011;38052;45.944;13.624;2023-09-19T05:55:24;24.83;;;9.15;;
52041;SDS011;38052;45.944;13.624;2023-09-19T05:57:51;24.30;;;9.50;;
52041;SDS011;38052;45.944;13.624;2023-09-19T06:00:18;23.27;;;9.35;;
52041;SDS011;38052;45.944;13.624;2023-09-19T06:02:49;23.63;;;10.83;;
52041;SDS011;38052;45.944;13.624;2023-09-19T06:05:15;25.38;;;10.30;;
52041;SDS011;38052;45.944;13.624;2023-09-19T06:07:42;21.48;;;8.52;;
52041;SDS011;38052;45.944;13.624;2023-09-19T06:10:09;29.02;;;10.25;;
52041;SDS011;38052;45.944;13.624;2023-09-19T06:12:39;27.40;;;8.93;;
52041;SDS011;38052;45.944;13.624;2023-09-19T06:15:05;22.23;;;9.27;;
52041;SDS011;38052;45.944;13.624;2023-09-19T06:17:40;19.33;;;8.93;;
52041;SDS011;38052;45.944;13.624;2023-09-19T06:20:06;24.25;;;10.02;;
52041;SDS011;38052;45.944;13.624;2023-09-19T06:22:42;30.23;;;10.50;;
52041;SDS011;38052;45.944;13.624;2023-09-19T06:25:09;28.48;;;9.48;;
52041;SDS011;38052;45.944;13.624;2023-09-19T06:27:40;27.17;;;8.88;;
52041;SDS011;38052;45.944;13.624;2023-09-19T06:30:08;21.50;;;8.98;;
52041;SDS011;38052;45.944;13.624;2023-09-19T06:32:34;20.25;;;8.13;;
52041;SDS011;38052;45.944;13.624;2023-09-19T06:35:00;18.17;;;8.30;;
52041;SDS011;38052;45.944;13.624;2023-09-19T06:37:28;25.48;;;8.05;;
52041;SDS011;38052;45.944;13.624;2023-09-19T06:39:55;23.48;;;8.82;;
52041;SDS011;38052;45.944;13.624;2023-09-19T06:42:22;25.05;;;8.90;;
52041;SDS011;38052;45.944;13.624;2023-09-19T06:44:49;24.58;;;8.95;;
52041;SDS011;38052;45.944;13.624;2023-09-19T06:47:15;35.25;;;9.13;;
52041;SDS011;38052;45.944;13.624;2023-09-19T06:49:42;24.77;;;8.02;;
52041;SDS011;38052;45.944;13.624;2023-09-19T06:52:11;22.73;;;8.80;;
52041;SDS011;38052;45.944;13.624;2023-09-19T06:54:38;27.30;;;8.88;;
52041;SDS011;38052;45.944;13.624;2023-09-19T06:57:05;22.67;;;7.35;;
52041;SDS011;38052;45.944;13.624;2023-09-19T06:59:31;28.13;;;8.35;;
52041;SDS011;38052;45.944;13.624;2023-09-19T07:01:57;22.77;;;8.15;;
52041;SDS011;38052;45.944;13.624;2023-09-19T07:04:24;16.60;;;7.88;;
52041;SDS011;38052;45.944;13.624;2023-09-19T07:06:51;23.55;;;7.35;;
52041;SDS011;38052;45.944;13.624;2023-09-19T07:09:17;33.35;;;8.82;;
52041;SDS011;38052;45.944;13.624;2023-09-19T07:11:47;27.98;;;7.60;;
52041;SDS011;38052;45.944;13.624;2023-09-19T07:14:15;20.35;;;8.43;;
52041;SDS011;38052;45.944;13.624;2023-09-19T07:16:42;25.52;;;8.05;;
52041;SDS011;38052;45.944;13.624;2023-09-19T07:19:10;26.08;;;7.38;;
52041;SDS011;38052;45.944;13.624;2023-09-19T07:21:36;32.03;;;8.02;;
52041;SDS011;38052;45.944;13.624;2023-09-19T07:24:03;27.02;;;7.38;;
52041;SDS011;38052;45.944;13.624;2023-09-19T07:26:30;31.85;;;7.45;;
52041;SDS011;38052;45.944;13.624;2023-09-19T07:28:57;34.58;;;7.35;;
52041;SDS011;38052;45.944;13.624;2023-09-19T07:31:23;28.38;;;7.70;;
52041;SDS011;38052;45.944;13.624;2023-09-19T07:33:50;22.65;;;7.00;;
52041;SDS011;38052;45.944;13.624;2023-09-19T07:36:16;32.08;;;7.90;;
52041;SDS011;38052;45.944;13.624;2023-09-19T07:38:42;34.15;;;7.35;;
52041;SDS011;38052;45.944;13.624;2023-09-19T07:41:09;26.90;;;7.05;;
52041;SDS011;38052;45.944;13.624;2023-09-19T07:43:36;28.20;;;7.30;;
52041;SDS011;38052;45.944;13.624;2023-09-19T07:46:06;24.70;;;6.97;;
52041;SDS011;38052;45.944;13.624;2023-09-19T07:48:34;22.83;;;6.38;;
52041;SDS011;38052;45.944;13.624;2023-09-19T07:51:01;35.17;;;6.90;;
52041;SDS011;38052;45.944;13.624;2023-09-19T07:53:28;23.90;;;6.85;;
52041;SDS011;38052;45.944;13.624;2023-09-19T07:56:01;24.73;;;6.75;;
52041;SDS011;38052;45.944;13.624;2023-09-19T07:58:28;26.27;;;6.55;;
52041;SDS011;38052;45.944;13.624;2023-09-19T08:00:55;26.48;;;6.35;;
52041;SDS011;38052;45.944;13.624;2023-09-19T08:03:21;20.77;;;6.38;;
52041;SDS011;38052;45.944;13.624;2023-09-19T08:05:48;19.83;;;6.35;;
52041;SDS011;38052;45.944;13.624;2023-09-19T08:08:14;24.95;;;6.60;;
52041;SDS011;38052;45.944;13.624;2023-09-19T08:10:41;23.60;;;6.32;;
52041;SDS011;38052;45.944;13.624;2023-09-19T08:13:10;24.08;;;7.03;;
52041;SDS011;38052;45.944;13.624;2023-09-19T08:15:43;30.85;;;8.43;;
52041;SDS011;38052;45.944;13.624;2023-09-19T08:18:09;34.50;;;8.05;;
52041;SDS011;38052;45.944;13.624;2023-09-19T08:20:38;26.60;;;6.55;;
52041;SDS011;38052;45.944;13.624;2023-09-19T08:23:05;23.60;;;6.22;;
52041;SDS011;38052;45.944;13.624;2023-09-19T08:25:33;32.22;;;7.88;;
52041;SDS011;38052;45.944;13.624;2023-09-19T08:27:59;28.52;;;8.35;;
52041;SDS011;38052;45.944;13.624;2023-09-19T08:30:27;26.25;;;7.22;;
52041;SDS011;38052;45.944;13.624;2023-09-19T08:32:59;29.40;;;7.93;;
52041;SDS011;38052;45.944;13.624;2023-09-19T08:35:25;27.80;;;7.90;;
52041;SDS011;38052;45.944;13.624;2023-09-19T08:37:51;25.80;;;8.63;;
52041;SDS011;38052;45.944;13.624;2023-09-19T08:40:18;32.60;;;8.77;;
52041;SDS011;38052;45.944;13.624;2023-09-19T08:42:51;31.48;;;8.95;;
52041;SDS011;38052;45.944;13.624;2023-09-19T08:45:19;30.98;;;9.25;;
52041;SDS011;38052;45.944;13.624;2023-09-19T08:47:56;27.58;;;7.55;;
52041;SDS011;38052;45.944;13.624;2023-09-19T08:50:27;25.55;;;8.73;;
52041;SDS011;38052;45.944;13.624;2023-09-19T08:52:55;23.95;;;8.30;;
52041;SDS011;38052;45.944;13.624;2023-09-19T08:55:26;24.65;;;7.57;;
52041;SDS011;38052;45.944;13.624;2023-09-19T08:57:59;28.15;;;8.25;;
52041;SDS011;38052;45.944;13.624;2023-09-19T09:00:26;27.65;;;7.88;;
52041;SDS011;38052;45.944;13.624;2023-09-19T09:02:52;21.20;;;7.75;;
52041;SDS011;38052;45.944;13.624;2023-09-19T09:05:19;18.23;;;7.35;;
52041;SDS011;38052;45.944;13.624;2023-09-19T09:07:48;26.70;;;8.68;;
52041;SDS011;38052;45.944;13.624;2023-09-19T09:10:20;33.83;;;8.88;;
52041;SDS011;38052;45.944;13.624;2023-09-19T09:12:51;22.35;;;8.38;;
52041;SDS011;38052;45.944;13.624;2023-09-19T09:15:21;27.35;;;7.90;;
52041;SDS011;38052;45.944;13.624;2023-09-19T09:17:48;22.90;;;8.07;;
52041;SDS011;38052;45.944;13.624;2023-09-19T09:20:16;22.67;;;5.70;;
52041;SDS011;38052;45.944;13.624;2023-09-19T09:25:18;12.07;;;4.15;;
52041;SDS011;38052;45.944;13.624;2023-09-19T09:28:01;12.60;;;3.85;;
52041;SDS011;38052;45.944;13.624;2023-09-19T09:30:36;10.70;;;3.90;;
52041;SDS011;38052;45.944;13.624;2023-09-19T09:33:09;13.02;;;3.50;;
52041;SDS011;38052;45.944;13.624;2023-09-19T09:35:36;17.38;;;3.47;;
52041;SDS011;38052;45.944;13.624;2023-09-19T09:38:06;7.68;;;2.28;;
52041;SDS011;38052;45.944;13.624;2023-09-19T09:41:16;10.10;;;2.47;;
52041;SDS011;38052;45.944;13.624;2023-09-19T09:43:30;7.70;;;2.20;;
52041;SDS011;38052;45.944;13.624;2023-09-19T09:46:16;192.18;;;26.08;;
52041;SDS011;38052;45.944;13.624;2023-09-19T09:48:55;11.30;;;2.00;;
52041;SDS011;38052;45.944;13.624;2023-09-19T09:51:40;9.23;;;1.88;;
52041;SDS011;38052;45.944;13.624;2023-09-19T09:54:22;5.28;;;2.00;;
52041;SDS011;38052;45.944;13.624;2023-09-19T09:56:57;7.05;;;2.17;;
52041;SDS011;38052;45.944;13.624;2023-09-19T09:59:51;8.27;;;2.38;;
52041;SDS011;38052;45.944;13.624;2023-09-19T10:04:58;4.57;;;1.27;;
52041;SDS011;38052;45.944;13.624;2023-09-19T10:07:39;7.97;;;2.20;;
52041;SDS011;38052;45.944;13.624;2023-09-19T10:10:15;5.65;;;1.13;;
52041;SDS011;38052;45.944;13.624;2023-09-19T10:12:54;5.60;;;1.20;;
52041;SDS011;38052;45.944;13.624;2023-09-19T10:15:21;4.03;;;1.13;;
52041;SDS011;38052;45.944;13.624;2023-09-19T10:17:49;5.00;;;0.80;;
52041;SDS011;38052;45.944;13.624;2023-09-19T10:20:23;7.97;;;1.30;;
52041;SDS011;38052;45.944;13.624;2023-09-19T10:23:08;4.05;;;1.23;;
52041;SDS011;38052;45.944;13.624;2023-09-19T10:25:36;8.93;;;1.63;;
52041;SDS011;38052;45.944;13.624;2023-09-19T10:28:05;6.70;;;1.25;;
52041;SDS011;38052;45.944;13.624;2023-09-19T10:30:36;7.25;;;1.15;;
52041;SDS011;38052;45.944;13.624;2023-09-19T10:33:09;5.82;;;1.17;;
52041;SDS011;38052;45.944;13.624;2023-09-19T10:35:38;3.75;;;0.60;;
52041;SDS011;38052;45.944;13.624;2023-09-19T10:38:24;7.85;;;1.38;;
52041;SDS011;38052;45.944;13.624;2023-09-19T10:40:51;3.80;;;1.00;;
52041;SDS011;38052;45.944;13.624;2023-09-19T10:43:19;1.85;;;0.95;;
52041;SDS011;38052;45.944;13.624;2023-09-19T10:45:47;4.20;;;1.00;;
52041;SDS011;38052;45.944;13.624;2023-09-19T10:48:18;5.50;;;1.23;;
52041;SDS011;38052;45.944;13.624;2023-09-19T10:50:52;3.75;;;1.35;;
52041;SDS011;38052;45.944;13.624;2023-09-19T10:53:20;3.00;;;0.88;;
52041;SDS011;38052;45.944;13.624;2023-09-19T10:55:53;3.65;;;0.93;;
52041;SDS011;38052;45.944;13.624;2023-09-19T10:58:29;6.38;;;0.75;;
52041;SDS011;38052;45.944;13.624;2023-09-19T11:00:59;2.65;;;0.73;;
52041;SDS011;38052;45.944;13.624;2023-09-19T11:03:37;2.92;;;0.85;;
52041;SDS011;38052;45.944;13.624;2023-09-19T11:06:17;5.85;;;1.40;;
52041;SDS011;38052;45.944;13.624;2023-09-19T11:08:51;3.47;;;0.60;;
52041;SDS011;38052;45.944;13.624;2023-09-19T11:22:21;8.45;;;0.90;;
52041;SDS011;38052;45.944;13.624;2023-09-19T11:24:48;2.78;;;0.77;;
52041;SDS011;38052;45.944;13.624;2023-09-19T11:27:16;5.55;;;1.35;;
52041;SDS011;38052;45.944;13.624;2023-09-19T11:29:43;3.10;;;0.68;;
52041;SDS011;38052;45.944;13.624;2023-09-19T11:32:10;2.08;;;0.73;;
52041;SDS011;38052;45.944;13.624;2023-09-19T11:37:17;1.30;;;0.50;;
52041;SDS011;38052;45.944;13.624;2023-09-19T11:40:05;1.95;;;0.60;;
52041;SDS011;38052;45.944;13.624;2023-09-19T11:42:47;1.25;;;0.32;;
52041;SDS011;38052;45.944;13.624;2023-09-19T11:48:18;1.02;;;0.57;;
52041;SDS011;38052;45.944;13.624;2023-09-19T11:50:45;1.85;;;0.90;;
52041;SDS011;38052;45.944;13.624;2023-09-19T11:53:13;2.60;;;0.60;;
52041;SDS011;38052;45.944;13.624;2023-09-19T11:55:41;2.22;;;0.52;;
52041;SDS011;38052;45.944;13.624;2023-09-19T11:58:08;3.58;;;0.57;;
52041;SDS011;38052;45.944;13.624;2023-09-19T12:00:35;1.17;;;0.40;;
52041;SDS011;38052;45.944;13.624;2023-09-19T12:03:07;1.25;;;0.43;;
52041;SDS011;38052;45.944;13.624;2023-09-19T12:05:34;3.30;;;0.55;;
52041;SDS011;38052;45.944;13.624;2023-09-19T12:08:06;5.25;;;0.70;;
52041;SDS011;38052;45.944;13.624;2023-09-19T12:10:47;2.55;;;0.60;;
52041;SDS011;38052;45.944;13.624;2023-09-19T12:13:17;1.00;;;0.43;;
52041;SDS011;38052;45.944;13.624;2023-09-19T12:15:43;3.03;;;1.05;;
52041;SDS011;38052;45.944;13.624;2023-09-19T12:18:27;1.20;;;0.43;;
52041;SDS011;38052;45.944;13.624;2023-09-19T12:20:55;1.58;;;0.60;;
52041;SDS011;38052;45.944;13.624;2023-09-19T12:23:23;2.00;;;0.45;;
52041;SDS011;38052;45.944;13.624;2023-09-19T12:25:51;1.30;;;0.50;;
52041;SDS011;38052;45.944;13.624;2023-09-19T12:28:19;1.60;;;0.45;;
52041;SDS011;38052;45.944;13.624;2023-09-19T12:33:15;1.15;;;0.40;;
52041;SDS011;38052;45.944;13.624;2023-09-19T12:35:44;2.20;;;0.93;;
52041;SDS011;38052;45.944;13.624;2023-09-19T12:38:10;3.08;;;0.52;;
52041;SDS011;38052;45.944;13.624;2023-09-19T12:40:37;0.60;;;0.30;;
52041;SDS011;38052;45.944;13.624;2023-09-19T12:43:07;2.65;;;0.30;;
52041;SDS011;38052;45.944;13.624;2023-09-19T12:45:34;2.13;;;0.60;;
52041;SDS011;38052;45.944;13.624;2023-09-19T12:50:59;1.58;;;0.50;;
52041;SDS011;38052;45.944;13.624;2023-09-19T12:53:25;2.00;;;0.57;;
52041;SDS011;38052;45.944;13.624;2023-09-19T12:56:00;2.35;;;1.00;;
52041;SDS011;38052;45.944;13.624;2023-09-19T12:58:27;1.17;;;0.40;;
52041;SDS011;38052;45.944;13.624;2023-09-19T13:00:55;2.22;;;0.70;;
52041;SDS011;38052;45.944;13.624;2023-09-19T13:05:56;1.40;;;0.65;;
52041;SDS011;38052;45.944;13.624;2023-09-19T13:08:32;2.50;;;0.77;;
52041;SDS011;38052;45.944;13.624;2023-09-19T13:11:17;1.38;;;0.50;;
52041;SDS011;38052;45.944;13.624;2023-09-19T13:16:29;1.08;;;0.40;;
52041;SDS011;38052;45.944;13.624;2023-09-19T13:18:55;2.05;;;0.70;;
52041;SDS011;38052;45.944;13.624;2023-09-19T13:24:17;2.97;;;0.60;;
52041;SDS011;38052;45.944;13.624;2023-09-19T13:26:44;3.53;;;0.75;;
52041;SDS011;38052;45.944;13.624;2023-09-19T13:29:10;3.58;;;0.60;;
52041;SDS011;38052;45.944;13.624;2023-09-19T13:31:37;2.15;;;0.50;;
52041;SDS011;38052;45.944;13.624;2023-09-19T13:36:33;1.48;;;0.30;;
52041;SDS011;38052;45.944;13.624;2023-09-19T13:39:00;3.20;;;0.60;;
52041;SDS011;38052;45.944;13.624;2023-09-19T13:41:26;2.85;;;0.70;;
52041;SDS011;38052;45.944;13.624;2023-09-19T13:43:54;2.78;;;1.05;;
52041;SDS011;38052;45.944;13.624;2023-09-19T13:46:22;3.40;;;1.00;;
52041;SDS011;38052;45.944;13.624;2023-09-19T13:48:52;1.15;;;0.60;;
52041;SDS011;38052;45.944;13.624;2023-09-19T13:51:20;4.10;;;0.60;;
52041;SDS011;38052;45.944;13.624;2023-09-19T13:53:50;2.35;;;0.82;;
52041;SDS011;38052;45.944;13.624;2023-09-19T13:56:17;2.88;;;0.65;;
52041;SDS011;38052;45.944;13.624;2023-09-19T13:58:43;2.47;;;0.88;;
52041;SDS011;38052;45.944;13.624;2023-09-19T14:01:10;3.53;;;0.50;;
52041;SDS011;38052;45.944;13.624;2023-09-19T14:03:41;1.00;;;0.43;;
52041;SDS011;38052;45.944;13.624;2023-09-19T14:06:16;1.55;;;0.50;;
52041;SDS011;38052;45.944;13.624;2023-09-19T14:08:43;1.20;;;0.50;;
52041;SDS011;38052;45.944;13.624;2023-09-19T14:13:39;5.35;;;0.93;;
52041;SDS011;38052;45.944;13.624;2023-09-19T14:16:06;2.60;;;0.57;;
52041;SDS011;38052;45.944;13.624;2023-09-19T14:18:34;1.65;;;0.75;;
52041;SDS011;38052;45.944;13.624;2023-09-19T14:21:04;3.22;;;0.80;;
52041;SDS011;38052;45.944;13.624;2023-09-19T14:23:36;2.30;;;0.70;;
52041;SDS011;38052;45.944;13.624;2023-09-19T14:26:02;3.17;;;0.50;;
52041;SDS011;38052;45.944;13.624;2023-09-19T14:28:30;1.90;;;0.70;;
52041;SDS011;38052;45.944;13.624;2023-09-19T14:30:56;3.05;;;0.93;;
52041;SDS011;38052;45.944;13.624;2023-09-19T14:33:24;3.40;;;0.55;;
52041;SDS011;38052;45.944;13.624;2023-09-19T14:35:51;2.80;;;0.80;;
52041;SDS011;38052;45.944;13.624;2023-09-19T14:38:18;3.03;;;1.00;;
52041;SDS011;38052;45.944;13.624;2023-09-19T14:40:44;3.08;;;0.68;;
52041;SDS011;38052;45.944;13.624;2023-09-19T14:43:10;1.00;;;0.60;;
52041;SDS011;38052;45.944;13.624;2023-09-19T14:45:37;1.10;;;0.50;;
52041;SDS011;38052;45.944;13.624;2023-09-19T14:48:03;3.25;;;0.63;;
52041;SDS011;38052;45.944;13.624;2023-09-19T14:50:30;2.97;;;0.73;;
52041;SDS011;38052;45.944;13.624;2023-09-19T14:52:56;1.70;;;0.43;;
52041;SDS011;38052;45.944;13.624;2023-09-19T14:55:23;1.52;;;0.50;;
52041;SDS011;38052;45.944;13.624;2023-09-19T14:57:49;3.25;;;0.77;;
52041;SDS011;38052;45.944;13.624;2023-09-19T15:00:17;3.22;;;0.47;;
52041;SDS011;38052;45.944;13.624;2023-09-19T15:02:45;3.63;;;0.57;;
52041;SDS011;38052;45.944;13.624;2023-09-19T15:05:14;0.73;;;0.40;;
52041;SDS011;38052;45.944;13.624;2023-09-19T15:07:42;5.25;;;0.63;;
52041;SDS011;38052;45.944;13.624;2023-09-19T15:10:08;6.95;;;1.08;;
52041;SDS011;38052;45.944;13.624;2023-09-19T15:12:38;4.38;;;0.50;;
52041;SDS011;38052;45.944;13.624;2023-09-19T15:15:05;3.35;;;0.90;;
52041;SDS011;38052;45.944;13.624;2023-09-19T15:17:35;3.70;;;0.70;;
52041;SDS011;38052;45.944;13.624;2023-09-19T15:20:02;2.08;;;0.40;;
52041;SDS011;38052;45.944;13.624;2023-09-19T15:22:31;2.28;;;0.52;;
52041;SDS011;38052;45.944;13.624;2023-09-19T15:24:57;1.95;;;0.60;;
52041;SDS011;38052;45.944;13.624;2023-09-19T15:27:24;2.90;;;0.68;;
52041;SDS011;38052;45.944;13.624;2023-09-19T15:29:51;2.25;;;0.68;;
52041;SDS011;38052;45.944;13.624;2023-09-19T15:32:18;1.80;;;0.68;;
52041;SDS011;38052;45.944;13.624;2023-09-19T15:34:44;4.25;;;0.70;;